Time;durP1;ratioP1;P1;durP2;ratioP2;P2;SDS_P1;SDS_P2;PMS_P1;PMS_P2;Temp;Humidity;BMP_temperature;BMP_pressure;BME280_temperature;BME280_humidity;BME280_pressure;Samples;Min_cycle;Max_cycle;Signal;HPM_P1;HPM_P2
2022/07/05 00:01:17;;;;;;;4.40;2.03;;;;;;;14.56;76.82;97619.69;5026797;28;20425;-66
2022/07/05 00:03:44;;;;;;;3.92;2.00;;;;;;;14.64;76.28;97621.09;5026304;28;20409;-66
2022/07/05 00:06:10;;;;;;;4.07;2.20;;;;;;;14.70;75.94;97625.44;5026370;28;20099;-65
2022/07/05 00:08:37;;;;;;;3.55;2.17;;;;;;;14.64;76.25;97607.47;5027321;28;20053;-65
2022/07/05 00:11:04;;;;;;;3.03;2.03;;;;;;;14.61;76.28;97615.34;5026253;28;20095;-66
2022/07/05 00:13:31;;;;;;;4.07;2.10;;;;;;;14.55;76.17;97619.97;5026184;28;20382;-65
2022/07/05 00:15:57;;;;;;;3.38;2.05;;;;;;;14.39;76.89;97614.53;5026016;28;20523;-66
2022/07/05 00:18:24;;;;;;;3.85;2.25;;;;;;;14.33;77.17;97610.16;5026526;28;20049;-65
2022/07/05 00:20:50;;;;;;;6.57;2.38;;;;;;;14.30;77.45;97611.50;5026688;28;20053;-65
2022/07/05 00:23:17;;;;;;;3.53;2.08;;;;;;;14.32;77.22;97611.25;5026109;28;20061;-65
2022/07/05 00:25:43;;;;;;;4.15;2.30;;;;;;;14.22;77.49;97612.03;5028816;28;20513;-65
2022/07/05 00:28:10;;;;;;;4.05;2.10;;;;;;;14.19;77.83;97618.00;5026213;28;20517;-65
2022/07/05 00:30:37;;;;;;;4.35;2.20;;;;;;;14.11;78.55;97616.66;5030535;28;20123;-65
2022/07/05 00:33:04;;;;;;;4.30;2.45;;;;;;;13.95;79.07;97614.97;5029696;28;20042;-65
2022/07/05 00:35:31;;;;;;;4.18;2.40;;;;;;;13.79;80.08;97610.28;5029487;28;20053;-65
2022/07/05 00:37:57;;;;;;;3.17;2.30;;;;;;;13.84;79.87;97612.22;5030333;28;20057;-65
2022/07/05 00:40:24;;;;;;;4.00;2.20;;;;;;;13.86;79.74;97610.03;5029683;28;20038;-65
2022/07/05 00:42:50;;;;;;;4.45;2.38;;;;;;;13.78;79.97;97605.13;5030154;28;20572;-66
2022/07/05 00:45:17;;;;;;;5.10;2.45;;;;;;;13.90;79.22;97605.69;5029548;28;20440;-65
2022/07/05 00:47:44;;;;;;;6.10;2.30;;;;;;;13.99;78.86;97606.00;5029187;28;20053;-65
2022/07/05 00:50:11;;;;;;;4.65;2.13;;;;;;;14.09;78.31;97610.66;5029714;28;20041;-65
2022/07/05 00:52:37;;;;;;;3.50;2.22;;;;;;;14.11;78.13;97607.69;5029365;28;20414;-65
2022/07/05 00:55:04;;;;;;;4.88;2.10;;;;;;;13.79;79.47;97609.50;5028939;28;20048;-65
2022/07/05 00:57:33;;;;;;;3.50;2.50;;;;;;;13.59;80.81;97612.94;5028911;28;20038;-65
2022/07/05 00:59:59;;;;;;;7.07;2.40;;;;;;;13.68;80.45;97618.69;5029842;28;20043;-66
2022/07/05 01:02:26;;;;;;;4.70;2.50;;;;;;;13.63;80.27;97617.59;5029060;28;20042;-65
2022/07/05 01:04:53;;;;;;;4.00;2.58;;;;;;;13.76;79.44;97620.91;5027379;28;20440;-66
2022/07/05 01:07:21;;;;;;;3.85;2.30;;;;;;;13.64;79.95;97621.16;5029176;28;20041;-66
2022/07/05 01:09:48;;;;;;;3.75;2.10;;;;;;;13.48;81.05;97628.41;5029762;28;20037;-66
2022/07/05 01:12:16;;;;;;;3.47;2.08;;;;;;;13.54;80.87;97624.63;5017549;28;20041;-66
2022/07/05 01:14:44;;;;;;;2.85;1.92;;;;;;;13.61;80.54;97619.78;5024261;28;20045;-65
2022/07/05 01:17:11;;;;;;;4.60;2.10;;;;;;;13.60;80.46;97617.31;5027751;28;20053;-65
2022/07/05 01:19:38;;;;;;;4.03;2.15;;;;;;;13.73;79.59;97633.16;5029097;28;20042;-65
2022/07/05 01:22:15;;;;;;;6.97;2.10;;;;;;;13.91;78.05;97626.41;5028807;28;20046;-65
2022/07/05 01:24:42;;;;;;;4.25;2.08;;;;;;;13.93;78.08;97625.31;5029296;28;20045;-66
2022/07/05 01:27:09;;;;;;;4.20;2.35;;;;;;;13.78;78.62;97624.16;5027394;28;20049;-66
2022/07/05 01:29:36;;;;;;;4.28;2.20;;;;;;;13.82;78.05;97614.38;5027671;28;20056;-65
2022/07/05 01:32:03;;;;;;;4.05;2.33;;;;;;;13.83;78.74;97626.09;5028811;28;20504;-65
2022/07/05 01:34:29;;;;;;;2.42;1.77;;;;;;;13.78;79.17;97621.44;5028780;28;20038;-66
2022/07/05 01:36:56;;;;;;;8.82;2.40;;;;;;;13.48;80.83;97631.13;5027773;28;20049;-65
2022/07/05 01:39:23;;;;;;;3.75;2.17;;;;;;;13.17;82.18;97631.75;5029200;28;20064;-65
2022/07/05 01:41:49;;;;;;;5.18;2.45;;;;;;;13.09;82.64;97624.88;5028826;28;20045;-65
2022/07/05 01:44:16;;;;;;;7.25;2.80;;;;;;;13.04;83.25;97621.34;5027549;28;20041;-67
2022/07/05 01:46:43;;;;;;;4.38;2.45;;;;;;;13.01;83.03;97626.22;5028773;28;20033;-66
2022/07/05 01:49:16;;;;;;;6.13;2.80;;;;;;;12.99;83.19;97630.28;5025123;28;20613;-66
2022/07/05 01:51:54;;;;;;;3.75;2.33;;;;;;;13.03;82.62;97627.84;5030998;28;20040;-66
2022/07/05 01:54:21;;;;;;;3.97;2.45;;;;;;;13.00;82.59;97629.19;5035182;28;20046;-66
2022/07/05 01:56:48;;;;;;;3.33;2.38;;;;;;;12.88;83.52;97632.94;5026935;28;20045;-66
2022/07/05 01:59:14;;;;;;;4.22;2.22;;;;;;;12.92;83.37;97629.66;5028150;28;20048;-66
2022/07/05 02:01:41;;;;;;;5.47;2.33;;;;;;;13.05;82.45;97628.41;5026872;28;20091;-66
2022/07/05 02:04:10;;;;;;;4.30;2.38;;;;;;;12.93;82.48;97626.69;5028161;28;20080;-66
2022/07/05 02:06:38;;;;;;;4.28;2.30;;;;;;;12.87;82.86;97623.13;5026988;28;20080;-66
2022/07/05 02:09:06;;;;;;;6.15;2.50;;;;;;;12.81;83.30;97624.16;5028022;28;20103;-66
2022/07/05 02:11:34;;;;;;;4.20;2.58;;;;;;;12.77;83.58;97624.94;5027195;28;20103;-66
2022/07/05 02:14:01;;;;;;;7.70;2.38;;;;;;;12.72;84.01;97625.75;5026468;28;20042;-66
2022/07/05 02:16:32;;;;;;;4.53;2.72;;;;;;;12.76;83.41;97624.13;5025699;28;20060;-66
2022/07/05 02:18:59;;;;;;;4.70;2.20;;;;;;;13.02;82.01;97624.31;5026260;28;20038;-65
2022/07/05 02:21:28;;;;;;;3.60;2.30;;;;;;;13.05;82.00;97620.25;5026567;28;20379;-65
2022/07/05 02:23:56;;;;;;;4.28;2.67;;;;;;;12.76;83.27;97621.44;5028304;28;20037;-65
2022/07/05 02:26:25;;;;;;;5.95;3.20;;;;;;;12.73;83.61;97627.38;5027298;28;20076;-66
2022/07/05 02:28:53;;;;;;;5.13;2.58;;;;;;;12.79;83.84;97622.81;5025069;28;20037;-66
2022/07/05 02:31:20;;;;;;;5.57;2.65;;;;;;;12.75;83.35;97627.91;5030194;28;20044;-66
2022/07/05 02:33:52;;;;;;;4.05;2.33;;;;;;;12.78;82.90;97619.25;5030310;28;20037;-66
2022/07/05 02:36:20;;;;;;;3.65;2.08;;;;;;;12.85;82.43;97622.56;5029348;28;20065;-66
2022/07/05 02:38:47;;;;;;;4.72;2.22;;;;;;;12.77;83.13;97631.22;5030073;28;20151;-65
2022/07/05 02:41:14;;;;;;;6.43;2.38;;;;;;;12.55;84.12;97632.13;5027990;28;20044;-65
2022/07/05 02:43:44;;;;;;;4.25;2.70;;;;;;;12.50;84.35;97623.94;5025827;28;20099;-65
2022/07/05 02:46:12;;;;;;;3.45;2.20;;;;;;;12.63;83.68;97621.88;5025604;28;20084;-65
2022/07/05 02:48:39;;;;;;;4.53;2.35;;;;;;;12.61;83.65;97627.56;5025803;28;20545;-65
2022/07/05 02:51:07;;;;;;;3.38;2.40;;;;;;;12.45;84.05;97627.41;5025765;28;20095;-65
2022/07/05 02:53:34;;;;;;;6.28;2.72;;;;;;;12.37;84.66;97630.59;5026087;28;20037;-66
2022/07/05 02:56:03;;;;;;;5.45;2.78;;;;;;;12.51;84.10;97632.88;5027069;28;20041;-65
2022/07/05 02:58:30;;;;;;;5.28;2.95;;;;;;;12.57;83.26;97631.88;5022606;28;20050;-65
2022/07/05 03:00:58;;;;;;;4.20;2.53;;;;;;;12.52;83.44;97629.09;5030162;28;20563;-65
2022/07/05 03:03:28;;;;;;;5.50;2.40;;;;;;;12.48;83.93;97628.78;5007100;28;20042;-65
2022/07/05 03:05:55;;;;;;;3.50;2.28;;;;;;;12.49;83.70;97636.69;5006671;28;20042;-65
2022/07/05 03:08:22;;;;;;;3.10;2.20;;;;;;;12.42;83.92;97638.78;4995028;28;20053;-65
2022/07/05 03:10:50;;;;;;;4.68;2.72;;;;;;;12.36;84.31;97637.91;5026115;28;20049;-66
2022/07/05 03:13:16;;;;;;;5.53;2.47;;;;;;;12.30;84.62;97636.22;5025282;28;20084;-66
2022/07/05 03:15:43;;;;;;;6.32;2.70;;;;;;;12.22;85.04;97640.25;5025378;28;20073;-66
2022/07/05 03:18:13;;;;;;;6.90;2.55;;;;;;;12.20;85.31;97644.28;5026122;28;20132;-66
2022/07/05 03:20:39;;;;;;;5.07;2.35;;;;;;;12.16;85.19;97651.31;5024539;28;20042;-66
2022/07/05 03:23:07;;;;;;;4.80;2.55;;;;;;;12.04;85.47;97648.69;5024001;28;20065;-66
2022/07/05 03:25:45;;;;;;;4.25;2.50;;;;;;;11.96;86.16;97648.09;5022237;28;20537;-66
2022/07/05 03:28:12;;;;;;;8.75;3.17;;;;;;;12.00;85.93;97647.56;5022518;28;20085;-66
2022/07/05 03:30:41;;;;;;;6.50;3.20;;;;;;;12.03;85.49;97649.75;5022243;28;20428;-66
2022/07/05 03:33:08;;;;;;;5.32;2.67;;;;;;;12.01;85.72;97647.31;5023464;28;20072;-66
2022/07/05 03:35:37;;;;;;;4.50;2.72;;;;;;;11.91;85.99;97648.00;5017006;28;20045;-65
2022/07/05 03:38:04;;;;;;;6.30;2.75;;;;;;;11.96;85.91;97644.53;5035433;28;20049;-65
2022/07/05 03:40:31;;;;;;;4.45;2.30;;;;;;;11.88;85.67;97651.25;5032913;28;20043;-65
2022/07/05 03:42:58;;;;;;;6.18;2.75;;;;;;;11.92;85.86;97646.94;5022137;28;20525;-65
2022/07/05 03:45:26;;;;;;;3.75;2.38;;;;;;;11.96;85.31;97650.78;5016471;28;20305;-65
2022/07/05 03:47:57;;;;;;;4.85;2.95;;;;;;;12.07;85.04;97653.63;5006066;28;20882;-65
2022/07/05 03:50:38;;;;;;;5.18;2.28;;;;;;;12.13;84.71;97660.78;5021879;28;20413;-65
2022/07/05 03:53:05;;;;;;;7.97;2.58;;;;;;;12.08;84.63;97661.53;5017625;28;20132;-66
2022/07/05 03:55:31;;;;;;;5.80;2.45;;;;;;;12.14;84.16;97667.00;5026253;28;20099;-66
2022/07/05 03:57:58;;;;;;;5.47;2.53;;;;;;;12.15;84.26;97669.47;5025511;28;20390;-65
2022/07/05 04:00:25;;;;;;;6.07;2.10;;;;;;;12.16;84.34;97664.88;5010869;28;20159;-66
2022/07/05 04:02:59;;;;;;;4.45;2.28;;;;;;;12.23;84.01;97679.88;5009367;28;20041;-66
2022/07/05 04:05:26;;;;;;;6.30;2.00;;;;;;;12.38;83.08;97674.88;5010273;28;20038;-66
2022/07/05 04:07:54;;;;;;;3.38;2.10;;;;;;;12.60;81.99;97678.34;5010526;28;20045;-66
2022/07/05 04:10:29;;;;;;;5.05;2.10;;;;;;;12.63;81.64;97679.72;5009578;28;20563;-66
2022/07/05 04:12:56;;;;;;;5.85;2.22;;;;;;;12.72;81.26;97680.88;5010851;28;20075;-66
2022/07/05 04:15:25;;;;;;;3.65;1.83;;;;;;;12.77;81.13;97677.41;5008652;28;20050;-66
2022/07/05 04:17:56;;;;;;;4.07;1.95;;;;;;;12.88;80.99;97681.00;5009209;28;20042;-66
2022/07/05 04:20:25;;;;;;;3.03;1.92;;;;;;;13.08;80.35;97691.22;5008885;28;20053;-65
2022/07/05 04:22:55;;;;;;;4.07;2.30;;;;;;;13.29;79.38;97687.81;5009215;28;20136;-66
2022/07/05 04:25:22;;;;;;;4.15;2.38;;;;;;;13.10;79.62;97690.97;5009221;28;20374;-65
2022/07/05 04:27:57;;;;;;;3.97;2.55;;;;;;;13.00;80.49;97700.69;5008927;28;20042;-66
2022/07/05 04:30:25;;;;;;;4.78;2.30;;;;;;;13.02;80.38;97705.88;5027069;28;20574;-66
2022/07/05 04:32:54;;;;;;;3.65;2.33;;;;;;;13.16;80.08;97702.69;5030069;28;20510;-65
2022/07/05 04:35:21;;;;;;;3.55;2.13;;;;;;;13.35;79.08;97708.53;5034329;28;20044;-65
2022/07/05 04:37:50;;;;;;;4.80;2.20;;;;;;;13.49;79.07;97700.78;5044266;28;20052;-65
2022/07/05 04:40:17;;;;;;;5.22;2.22;;;;;;;13.50;78.78;97696.97;5033962;28;20049;-66
2022/07/05 04:42:44;;;;;;;5.25;1.98;;;;;;;13.57;79.00;97699.47;5044654;28;20073;-65
2022/07/05 04:45:13;;;;;;;3.60;2.03;;;;;;;13.62;78.81;97697.59;5032199;28;20048;-65
2022/07/05 04:47:39;;;;;;;3.42;1.95;;;;;;;13.65;78.79;97702.47;5022839;28;20096;-65
2022/07/05 04:50:07;;;;;;;3.63;2.15;;;;;;;13.87;77.80;97697.97;5014897;28;20078;-65
2022/07/05 04:52:34;;;;;;;4.47;1.85;;;;;;;14.07;76.98;97699.94;5020616;28;20056;-66
2022/07/05 04:55:01;;;;;;;3.88;2.03;;;;;;;14.17;76.94;97701.91;5026498;28;20460;-65
2022/07/05 04:57:27;;;;;;;4.07;1.90;;;;;;;14.30;76.26;97706.03;5032274;28;20751;-65
2022/07/05 04:59:54;;;;;;;4.57;2.10;;;;;;;14.45;75.30;97702.53;5028827;28;20053;-65
2022/07/05 05:02:20;;;;;;;5.00;2.10;;;;;;;14.51;74.98;97701.44;5026292;28;20050;-65
2022/07/05 05:04:47;;;;;;;7.50;2.10;;;;;;;14.63;74.48;97703.09;5027364;28;20805;-65
2022/07/05 05:07:14;;;;;;;3.78;2.03;;;;;;;14.73;74.63;97707.72;5042997;28;20049;-65
2022/07/05 05:09:40;;;;;;;5.97;2.00;;;;;;;14.85;73.85;97702.84;5043798;28;20405;-65
2022/07/05 05:12:08;;;;;;;6.47;2.17;;;;;;;14.95;73.22;97707.50;5027368;28;20049;-66
2022/07/05 05:14:34;;;;;;;4.28;1.70;;;;;;;15.01;73.61;97708.31;5025196;28;20041;-65
2022/07/05 05:17:01;;;;;;;4.45;1.70;;;;;;;15.02;73.52;97701.78;5038173;28;20127;-65
2022/07/05 05:19:27;;;;;;;4.18;1.60;;;;;;;15.06;73.39;97706.44;5028813;28;20045;-65
2022/07/05 05:21:54;;;;;;;2.63;1.52;;;;;;;15.21;73.44;97705.59;5029265;28;20436;-65
2022/07/05 05:24:21;;;;;;;4.05;1.60;;;;;;;15.39;72.58;97708.84;5029068;28;20045;-65
2022/07/05 05:26:47;;;;;;;4.70;1.83;;;;;;;15.50;71.35;97709.66;5028257;28;20053;-65
2022/07/05 05:29:14;;;;;;;6.35;1.80;;;;;;;15.65;70.69;97705.22;5020238;28;20050;-65
2022/07/05 05:31:40;;;;;;;3.72;1.65;;;;;;;15.82;70.83;97704.94;5009060;28;20038;-66
2022/07/05 05:34:07;;;;;;;3.25;1.50;;;;;;;15.95;70.40;97709.00;5008994;28;20045;-66
2022/07/05 05:36:33;;;;;;;2.95;1.73;;;;;;;16.09;69.67;97712.78;5008402;28;20494;-66
2022/07/05 05:39:00;;;;;;;2.60;1.30;;;;;;;16.24;67.74;97711.88;5019668;28;20552;-65
2022/07/05 05:41:26;;;;;;;2.58;1.40;;;;;;;16.41;68.44;97715.34;5029211;28;20037;-65
2022/07/05 05:43:53;;;;;;;3.60;1.60;;;;;;;16.60;67.04;97718.25;5028935;28;20676;-65
2022/07/05 05:46:20;;;;;;;3.58;1.20;;;;;;;16.74;66.96;97710.22;5028737;28;20037;-65
2022/07/05 05:48:46;;;;;;;5.03;1.50;;;;;;;16.81;67.92;97716.16;5028983;28;20282;-65
2022/07/05 05:51:13;;;;;;;2.22;1.25;;;;;;;16.92;67.53;97710.63;5028715;28;20251;-65
2022/07/05 05:53:40;;;;;;;2.72;1.17;;;;;;;17.08;63.54;97708.63;5028892;28;20472;-65
2022/07/05 05:56:06;;;;;;;3.58;1.50;;;;;;;17.24;62.54;97712.88;5027986;28;20436;-65
2022/07/05 05:58:33;;;;;;;2.10;1.10;;;;;;;17.34;63.06;97709.22;5023334;28;20049;-65
2022/07/05 06:00:59;;;;;;;3.05;1.05;;;;;;;17.45;60.07;97712.69;5010816;28;20387;-65
2022/07/05 06:03:27;;;;;;;2.05;0.90;;;;;;;17.50;60.46;97720.81;5027510;28;20065;-65
2022/07/05 06:05:54;;;;;;;3.20;1.10;;;;;;;17.58;61.89;97722.09;5021347;28;20048;-65
2022/07/05 06:08:21;;;;;;;3.13;1.00;;;;;;;17.65;61.96;97719.84;5032937;28;20060;-65
2022/07/05 06:10:50;;;;;;;2.38;1.00;;;;;;;17.72;59.12;97718.72;5027684;28;20049;-65
2022/07/05 06:13:28;;;;;;;1.90;0.90;;;;;;;17.95;57.47;97722.56;5030063;28;20052;-65
2022/07/05 06:15:54;;;;;;;1.60;0.88;;;;;;;18.05;57.38;97727.09;5024265;28;20051;-66
2022/07/05 06:18:22;;;;;;;2.70;0.88;;;;;;;18.19;58.52;97727.22;5027992;28;20557;-66
2022/07/05 06:20:48;;;;;;;1.98;1.00;;;;;;;18.26;56.58;97732.34;5027771;28;20041;-66
2022/07/05 06:23:15;;;;;;;6.22;1.00;;;;;;;18.45;51.64;97737.84;5027370;28;20050;-66
2022/07/05 06:25:42;;;;;;;2.60;0.77;;;;;;;18.53;51.55;97737.19;5027422;28;20068;-65
2022/07/05 06:28:08;;;;;;;2.88;0.90;;;;;;;18.62;49.97;97736.53;5028058;28;20512;-66
2022/07/05 06:30:37;;;;;;;3.25;0.70;;;;;;;18.72;50.42;97745.44;5010590;28;20046;-66
2022/07/05 06:33:04;;;;;;;1.58;0.70;;;;;;;18.87;49.61;97745.50;5007980;28;20053;-66
2022/07/05 06:35:31;;;;;;;8.13;0.95;;;;;;;18.94;50.77;97744.00;5008038;28;20103;-66
2022/07/05 06:38:00;;;;;;;1.85;0.85;;;;;;;19.01;51.68;97749.13;5009720;28;20042;-66
2022/07/05 06:40:34;;;;;;;5.90;1.00;;;;;;;19.17;52.00;97754.41;5027767;28;20034;-66
2022/07/05 06:43:04;;;;;;;3.85;0.90;;;;;;;19.18;51.74;97750.53;5027276;28;20493;-66
2022/07/05 06:45:40;;;;;;;4.45;2.53;;;;;;;19.16;50.19;97763.75;5026423;28;20581;-66
2022/07/05 06:48:09;;;;;;;2.60;0.90;;;;;;;19.24;50.77;97754.84;5027518;28;20056;-66
2022/07/05 06:50:39;;;;;;;1.45;0.90;;;;;;;19.28;50.69;97758.63;5027562;28;20045;-65
2022/07/05 06:53:06;;;;;;;14.30;1.90;;;;;;;19.29;50.37;97763.00;5027741;28;20045;-66
2022/07/05 06:55:33;;;;;;;3.25;0.90;;;;;;;19.31;50.52;97759.94;5026769;28;20045;-66
2022/07/05 06:58:05;;;;;;;3.90;1.10;;;;;;;19.33;50.32;97760.44;5027008;28;20048;-65
2022/07/05 07:00:40;;;;;;;1.73;0.80;;;;;;;19.43;51.67;97762.22;5007801;28;20149;-66
2022/07/05 07:03:27;;;;;;;3.35;1.25;;;;;;;19.53;51.44;97759.28;5007666;28;20107;-67
2022/07/05 07:06:14;;;;;;;1.63;1.00;;;;;;;19.62;51.79;97756.66;5007342;28;20077;-66
2022/07/05 07:11:26;;;;;;;5.25;1.00;;;;;;;19.84;49.32;97756.00;5027307;28;20308;-66
2022/07/05 07:13:53;;;;;;;1.95;0.88;;;;;;;19.85;49.24;97754.03;5026940;28;20045;-66
2022/07/05 07:16:20;;;;;;;5.38;1.00;;;;;;;19.89;48.00;97758.63;5027392;28;20048;-65
2022/07/05 07:18:47;;;;;;;2.65;0.88;;;;;;;19.93;48.50;97749.78;5026177;28;20049;-65
2022/07/05 07:21:33;;;;;;;1.13;0.80;;;;;;;19.93;48.66;97758.81;5027158;28;20052;-66
2022/07/05 07:24:00;;;;;;;2.67;0.80;;;;;;;19.96;48.94;97760.16;5027812;28;20064;-66
2022/07/05 07:26:27;;;;;;;1.63;0.88;;;;;;;19.99;48.50;97759.59;5026594;28;20053;-66
2022/07/05 07:28:54;;;;;;;5.97;1.20;;;;;;;20.07;47.26;97769.03;5026942;28;20056;-66
2022/07/05 07:31:20;;;;;;;1.75;0.80;;;;;;;20.12;48.13;97763.47;5026868;28;20049;-66
2022/07/05 07:33:47;;;;;;;1.33;0.90;;;;;;;20.18;48.22;97766.91;5028182;28;20041;-66
2022/07/05 07:36:13;;;;;;;1.52;0.85;;;;;;;20.22;47.16;97768.75;5031155;28;20046;-66
2022/07/05 07:38:41;;;;;;;2.15;0.80;;;;;;;20.27;47.42;97765.09;5031581;28;20052;-67
2022/07/05 07:41:09;;;;;;;4.05;1.17;;;;;;;20.35;46.43;97778.09;5031307;28;20053;-67
2022/07/05 07:43:35;;;;;;;3.30;0.90;;;;;;;20.27;46.43;97770.59;5030634;28;20135;-67
2022/07/05 07:46:02;;;;;;;2.28;0.80;;;;;;;20.33;47.50;97774.84;5032063;28;20037;-66
2022/07/05 07:48:29;;;;;;;3.60;1.10;;;;;;;20.39;47.87;97779.09;5027793;28;20049;-67
2022/07/05 07:50:55;;;;;;;2.60;1.15;;;;;;;20.48;47.44;97787.47;5032980;28;20041;-67
2022/07/05 07:53:22;;;;;;;3.72;1.08;;;;;;;20.54;47.80;97782.69;5039977;28;20467;-67
2022/07/05 07:55:49;;;;;;;1.52;0.95;;;;;;;20.61;48.50;97785.00;5043348;28;20037;-66
2022/07/05 07:58:15;;;;;;;4.72;1.40;;;;;;;20.60;47.83;97780.63;5024969;28;20053;-66
2022/07/05 08:00:42;;;;;;;1.73;0.90;;;;;;;20.69;48.56;97769.69;5040087;28;20579;-66
2022/07/05 08:03:09;;;;;;;2.10;0.90;;;;;;;20.83;49.10;97787.00;5020447;28;20057;-66
2022/07/05 08:05:35;;;;;;;2.15;1.08;;;;;;;21.01;48.37;97782.47;5036307;28;20044;-67
2022/07/05 08:08:03;;;;;;;2.97;1.52;;;;;;;21.09;49.59;97786.44;5033977;28;20459;-67
2022/07/05 08:10:29;;;;;;;3.05;1.02;;;;;;;21.09;49.23;97788.38;5037163;28;20412;-66
2022/07/05 08:12:56;;;;;;;2.30;1.08;;;;;;;21.22;48.38;97792.22;5033955;28;20049;-66
2022/07/05 08:15:22;;;;;;;2.03;1.15;;;;;;;21.16;49.46;97781.31;5030949;28;20493;-68
2022/07/05 08:23:19;;;;;;;2.40;0.93;;;;;;;21.46;48.11;97785.56;5010410;28;20068;-67
2022/07/05 08:25:45;;;;;;;5.35;1.88;;;;;;;21.53;48.16;97789.50;5010302;28;20072;-67
2022/07/05 08:28:12;;;;;;;2.67;1.08;;;;;;;21.55;48.18;97792.75;5010795;28;20080;-68
2022/07/05 08:30:39;;;;;;;2.60;0.90;;;;;;;21.54;47.31;97787.56;5018362;28;20652;-66
2022/07/05 08:33:05;;;;;;;4.32;1.13;;;;;;;21.67;46.19;97783.91;5022297;28;20046;-66
2022/07/05 08:35:32;;;;;;;2.03;0.93;;;;;;;21.76;46.55;97788.69;5026149;28;20041;-66
2022/07/05 08:37:58;;;;;;;3.08;0.80;;;;;;;21.77;45.75;97779.28;5041139;28;20384;-66
2022/07/05 08:40:26;;;;;;;2.50;1.00;;;;;;;21.94;45.87;97778.56;5028520;28;20045;-66
2022/07/05 08:42:57;;;;;;;4.80;1.30;;;;;;;22.00;44.79;97784.75;5047887;28;20098;-66
2022/07/05 08:45:27;;;;;;;3.75;1.05;;;;;;;22.06;43.85;97784.31;5040307;28;20140;-65
2022/07/05 08:47:56;;;;;;;3.80;0.93;;;;;;;22.13;44.35;97786.59;5009412;28;20552;-66
2022/07/05 08:50:25;;;;;;;1.85;0.90;;;;;;;22.15;44.86;97787.06;5009164;28;20088;-66
2022/07/05 08:52:52;;;;;;;3.20;1.10;;;;;;;22.18;42.73;97782.88;5019995;28;20050;-66
2022/07/05 08:55:20;;;;;;;6.53;1.23;;;;;;;22.24;42.56;97781.59;5029342;28;20041;-66
2022/07/05 08:57:46;;;;;;;4.72;1.00;;;;;;;22.24;43.35;97789.88;5029986;28;20056;-66
2022/07/05 09:00:14;;;;;;;4.80;0.90;;;;;;;22.24;44.10;97778.84;5041161;28;20049;-65
2022/07/05 09:02:40;;;;;;;2.42;0.88;;;;;;;22.34;44.07;97783.25;5016463;28;20045;-66
2022/07/05 09:05:14;;;;;;;3.83;0.80;;;;;;;22.39;42.76;97776.78;5027609;28;20041;-67
2022/07/05 09:07:48;;;;;;;3.03;1.00;;;;;;;22.33;42.60;97776.94;5033088;28;20038;-66
2022/07/05 09:10:19;;;;;;;2.83;1.00;;;;;;;22.35;43.45;97788.47;5028920;28;20041;-66
2022/07/05 09:12:46;;;;;;;7.47;1.13;;;;;;;22.32;42.26;97789.09;5036095;28;20038;-66
2022/07/05 09:15:13;;;;;;;3.05;1.20;;;;;;;22.32;41.56;97786.34;5029583;28;20048;-66
2022/07/05 09:17:44;;;;;;;5.78;0.70;;;;;;;22.31;41.48;97781.97;5028755;28;20497;-66
2022/07/05 09:20:15;;;;;;;1.13;0.82;;;;;;;22.22;42.38;97778.34;5028107;28;20045;-66
2022/07/05 09:22:54;;;;;;;3.28;0.70;;;;;;;22.44;42.99;97788.47;5009249;28;20042;-66
2022/07/05 09:25:23;;;;;;;3.17;1.00;;;;;;;22.60;42.63;97794.38;5009740;28;20501;-66
2022/07/05 09:27:56;;;;;;;4.40;0.80;;;;;;;22.81;40.11;97787.47;5009287;28;20073;-66
2022/07/05 09:30:41;;;;;;;3.38;1.00;;;;;;;22.81;40.14;97802.06;5009272;28;20042;-66
2022/07/05 09:33:15;;;;;;;2.45;0.80;;;;;;;22.68;39.76;97800.25;5009679;28;20042;-66
2022/07/05 09:35:50;;;;;;;3.22;0.90;;;;;;;22.54;40.38;97806.69;5009099;28;20049;-67
2022/07/05 09:38:26;;;;;;;2.35;0.90;;;;;;;22.59;40.00;97803.81;5014323;28;20527;-66
2022/07/05 09:40:55;;;;;;;2.40;0.80;;;;;;;22.47;39.88;97807.16;5027339;28;20489;-66
2022/07/05 09:43:27;;;;;;;2.97;0.80;;;;;;;22.31;39.51;97805.97;5029513;28;20041;-66
2022/07/05 09:46:02;;;;;;;4.03;0.95;;;;;;;22.43;40.32;97800.66;5028531;28;20389;-66
2022/07/05 09:48:31;;;;;;;4.43;0.82;;;;;;;22.65;40.03;97809.97;5028955;28;20124;-66
2022/07/05 09:51:12;;;;;;;4.28;0.70;;;;;;;22.61;39.53;97811.75;5020270;28;20072;-66
2022/07/05 09:54:00;;;;;;;1.80;0.90;;;;;;;22.57;39.80;97808.00;5027731;28;20042;-66
2022/07/05 09:56:42;;;;;;;2.88;0.90;;;;;;;22.60;39.72;97797.13;5028374;28;20040;-66
2022/07/05 09:59:18;;;;;;;2.13;0.75;;;;;;;22.70;39.71;97807.06;5027238;28;20048;-66
2022/07/05 10:01:45;;;;;;;2.05;0.90;;;;;;;22.86;38.72;97799.13;5028795;28;20121;-66
2022/07/05 10:04:12;;;;;;;2.60;0.80;;;;;;;22.81;39.20;97801.25;5028501;28;20041;-66
2022/07/05 10:06:39;;;;;;;5.45;0.80;;;;;;;22.95;39.34;97795.56;5028234;28;20038;-66
2022/07/05 10:09:07;;;;;;;2.13;0.70;;;;;;;23.17;38.53;97799.31;5028709;28;20045;-66
2022/07/05 10:11:36;;;;;;;1.83;0.70;;;;;;;23.26;38.34;97800.13;5029638;28;20103;-66
2022/07/05 10:14:09;;;;;;;1.48;0.60;;;;;;;23.60;39.08;97795.75;5022733;28;20576;-66
2022/07/05 10:16:35;;;;;;;4.82;0.68;;;;;;;23.33;37.37;97796.88;5034538;28;20576;-66
2022/07/05 10:19:08;;;;;;;3.38;1.00;;;;;;;23.20;36.10;97791.19;5039194;28;20049;-65
2022/07/05 10:21:35;;;;;;;7.55;1.88;;;;;;;23.46;36.98;97795.91;5019465;28;20049;-66
2022/07/05 10:24:22;;;;;;;1.67;0.60;;;;;;;23.81;35.97;97799.75;5026225;28;20072;-66
2022/07/05 10:26:49;;;;;;;1.85;0.70;;;;;;;23.77;34.86;97802.38;5038700;28;20448;-65
2022/07/05 10:29:16;;;;;;;3.28;0.70;;;;;;;23.83;36.19;97797.44;5030559;28;20045;-66
2022/07/05 10:31:44;;;;;;;2.28;0.70;;;;;;;23.48;35.41;97801.13;5043495;28;20049;-66
2022/07/05 10:34:12;;;;;;;2.95;0.68;;;;;;;23.44;36.42;97800.16;5020600;28;20410;-66
2022/07/05 10:36:59;;;;;;;2.25;0.75;;;;;;;23.57;36.62;97804.69;5027166;28;20111;-66
2022/07/05 10:39:26;;;;;;;1.85;0.75;;;;;;;23.81;36.03;97797.00;5027905;28;20045;-66
2022/07/05 10:41:54;;;;;;;1.98;0.73;;;;;;;23.64;36.43;97801.41;5027935;28;20413;-66
2022/07/05 10:44:47;;;;;;;1.13;0.70;;;;;;;23.70;36.64;97794.56;5027633;28;20406;-66
2022/07/05 10:47:14;;;;;;;3.30;0.90;;;;;;;23.72;35.68;97785.94;5006846;28;20077;-66
2022/07/05 10:49:41;;;;;;;2.42;0.88;;;;;;;23.74;36.91;97794.72;5036561;28;20055;-66
2022/07/05 10:52:24;;;;;;;5.82;2.17;;;;;;;23.69;36.65;97795.69;5038091;28;20065;-66
2022/07/05 10:55:16;;;;;;;3.17;1.00;;;;;;;23.65;36.09;97794.75;5033786;28;20124;-66
2022/07/05 10:57:42;;;;;;;1.33;0.88;;;;;;;23.69;37.51;97781.09;5020372;28;20041;-66
2022/07/05 11:00:12;;;;;;;3.30;0.90;;;;;;;23.63;37.66;97781.25;5025102;28;20045;-66
2022/07/05 11:02:39;;;;;;;3.93;1.10;;;;;;;23.84;37.31;97790.81;5025434;28;20056;-66
2022/07/05 11:05:06;;;;;;;4.18;1.00;;;;;;;23.96;37.28;97790.09;5022801;28;20038;-67
2022/07/05 11:07:58;;;;;;;2.63;0.70;;;;;;;24.11;36.94;97794.31;5024487;28;20041;-66
2022/07/05 11:10:25;;;;;;;4.88;1.75;;;;;;;23.82;37.77;97790.31;5044832;28;20064;-66
2022/07/05 11:12:51;;;;;;;3.25;1.00;;;;;;;23.93;37.41;97788.81;5045676;28;20480;-66
2022/07/05 11:15:18;;;;;;;3.97;0.90;;;;;;;24.06;37.19;97788.94;5038321;28;20186;-66
2022/07/05 11:17:45;;;;;;;1.73;0.80;;;;;;;24.29;36.43;97801.38;5037244;28;20477;-66
2022/07/05 11:20:33;;;;;;;3.33;0.90;;;;;;;24.19;36.00;97801.75;5022374;28;20045;-66
2022/07/05 11:23:02;;;;;;;4.45;0.90;;;;;;;24.26;35.77;97787.41;5012452;28;20053;-66
2022/07/05 11:25:31;;;;;;;4.70;0.80;;;;;;;24.35;35.59;97790.13;5024938;28;20049;-66
2022/07/05 11:28:06;;;;;;;2.83;1.10;;;;;;;24.44;35.74;97788.13;5029400;28;20120;-66
2022/07/05 11:30:53;;;;;;;3.25;1.05;;;;;;;24.41;34.77;97792.38;5015582;28;20046;-66
2022/07/05 11:33:28;;;;;;;2.47;0.90;;;;;;;24.34;35.82;97789.31;5008386;28;20062;-66
2022/07/05 11:35:57;;;;;;;1.60;0.80;;;;;;;24.33;35.09;97782.19;5007229;28;20432;-66
2022/07/05 11:38:23;;;;;;;10.38;1.20;;;;;;;24.43;35.67;97783.72;5013007;28;20401;-66
2022/07/05 11:41:13;;;;;;;3.83;0.90;;;;;;;24.36;35.86;97772.41;5027101;28;20417;-66
2022/07/05 11:43:41;;;;;;;4.00;1.45;;;;;;;24.57;36.03;97777.94;5031326;28;20044;-66
2022/07/05 11:46:09;;;;;;;2.55;0.93;;;;;;;24.97;35.44;97784.22;5028187;28;20065;-67
2022/07/05 11:48:56;;;;;;;2.35;0.98;;;;;;;25.01;34.02;97771.31;5033273;28;20080;-68
2022/07/05 11:51:22;;;;;;;2.38;0.88;;;;;;;25.00;33.97;97776.06;5030855;28;20046;-67